HDA154 NZCH-NZAA
Flight info
| Callsign | HDA154 |
|---|---|
| Flight time | 1h 11m |
| Altitude | 35000 |
| Route | GLENN Y175 OMKUN Y655 POKOM Q277 DAVEE |
| Aircraft | A333/H-V/N |
Departure
| Time | 2026-05-06 22:48 |
|---|---|
| Airport | Christchurch International Airport (NZCH) |
Arrival
| Time | 2026-05-06 23:59 |
|---|---|
| Airport | Auckland International Airport (NZAA) |
| Time | Latitude | Longitude | Altitude | Speed | Heading |
|---|---|---|---|---|---|
| 2026-05-06 22:31 | -43.48627 | 172.54068 | 112 ft | 0 kts | 208° |
| 2026-05-06 22:39 | -43.48625 | 172.54069 | 112 ft | 2 kts | 208° |
| 2026-05-06 22:39 | -43.48612 | 172.54079 | 112 ft | 2 kts | 208° |
| 2026-05-06 22:39 | -43.48599 | 172.54088 | 112 ft | 2 kts | 208° |
| 2026-05-06 22:40 | -43.48587 | 172.54097 | 112 ft | 2 kts | 208° |
| 2026-05-06 22:40 | -43.48574 | 172.54108 | 112 ft | 2 kts | 204° |
| 2026-05-06 22:40 | -43.48560 | 172.54114 | 112 ft | 2 kts | 182° |
| 2026-05-06 22:40 | -43.48545 | 172.54112 | 112 ft | 2 kts | 166° |
| 2026-05-06 22:41 | -43.48518 | 172.54100 | 112 ft | 2 kts | 161° |
| 2026-05-06 22:41 | -43.48505 | 172.54094 | 112 ft | 2 kts | 162° |
| 2026-05-06 22:41 | -43.48491 | 172.54089 | 112 ft | 2 kts | 181° |
| 2026-05-06 22:42 | -43.48477 | 172.54092 | 112 ft | 2 kts | 204° |
| 2026-05-06 22:42 | -43.48468 | 172.54099 | 112 ft | 0 kts | 218° |
| 2026-05-06 22:42 | -43.48466 | 172.54100 | 112 ft | 0 kts | 218° |
| 2026-05-06 22:44 | -43.48478 | 172.54088 | 112 ft | 8 kts | 219° |
| 2026-05-06 22:44 | -43.48531 | 172.53992 | 112 ft | 22 kts | 233° |
| 2026-05-06 22:44 | -43.48668 | 172.53810 | 112 ft | 39 kts | 219° |
| 2026-05-06 22:45 | -43.48863 | 172.53584 | 113 ft | 36 kts | 219° |
| 2026-05-06 22:45 | -43.49040 | 172.53384 | 115 ft | 35 kts | 219° |
| 2026-05-06 22:45 | -43.49207 | 172.53195 | 119 ft | 33 kts | 220° |
| 2026-05-06 22:45 | -43.49393 | 172.52982 | 125 ft | 42 kts | 219° |
| 2026-05-06 22:46 | -43.49609 | 172.52737 | 130 ft | 37 kts | 218° |
| 2026-05-06 22:46 | -43.49783 | 172.52527 | 131 ft | 35 kts | 243° |
| 2026-05-06 22:46 | -43.49783 | 172.52263 | 135 ft | 21 kts | 300° |
| 2026-05-06 22:46 | -43.49686 | 172.52298 | 135 ft | 17 kts | 43° |
| 2026-05-06 22:47 | -43.49672 | 172.52313 | 135 ft | 0 kts | 41° |
| 2026-05-06 22:47 | -43.49657 | 172.52331 | 135 ft | 22 kts | 40° |
| 2026-05-06 22:47 | -43.49332 | 172.52708 | 128 ft | 107 kts | 40° |
| 2026-05-06 22:47 | -43.48631 | 172.53529 | 212 ft | 167 kts | 40° |
| 2026-05-06 22:48 | -43.47692 | 172.54613 | 683 ft | 201 kts | 38° |
| 2026-05-06 22:48 | -43.46631 | 172.55553 | 1853 ft | 184 kts | 18° |
| 2026-05-06 22:48 | -43.45452 | 172.56165 | 2480 ft | 193 kts | 19° |
| 2026-05-06 22:48 | -43.44257 | 172.56895 | 3013 ft | 206 kts | 20° |
| 2026-05-06 22:49 | -43.42977 | 172.57706 | 3539 ft | 221 kts | 20° |
| 2026-05-06 22:49 | -43.41619 | 172.58588 | 4055 ft | 236 kts | 20° |
| 2026-05-06 22:49 | -43.40176 | 172.59528 | 4692 ft | 247 kts | 19° |
| 2026-05-06 22:49 | -43.38699 | 172.60500 | 5509 ft | 248 kts | 18° |
| 2026-05-06 22:50 | -43.37266 | 172.61436 | 6344 ft | 249 kts | 16° |
| 2026-05-06 22:50 | -43.35836 | 172.62369 | 7127 ft | 251 kts | 16° |
| 2026-05-06 22:50 | -43.34408 | 172.63298 | 7809 ft | 255 kts | 16° |
| 2026-05-06 22:50 | -43.32984 | 172.64194 | 8536 ft | 254 kts | 11° |
| 2026-05-06 22:51 | -43.31480 | 172.64819 | 9125 ft | 258 kts | 7° |
| 2026-05-06 22:51 | -43.29948 | 172.65488 | 9773 ft | 263 kts | 8° |
| 2026-05-06 22:51 | -43.28405 | 172.66164 | 10357 ft | 270 kts | 9° |
| 2026-05-06 22:51 | -43.26800 | 172.66875 | 10775 ft | 283 kts | 10° |
| 2026-05-06 22:52 | -43.25058 | 172.67647 | 11116 ft | 299 kts | 10° |
| 2026-05-06 22:52 | -43.23250 | 172.68451 | 11421 ft | 315 kts | 11° |
| 2026-05-06 22:52 | -43.21335 | 172.69301 | 11690 ft | 332 kts | 12° |
| 2026-05-06 22:52 | -43.19306 | 172.70206 | 11979 ft | 346 kts | 12° |
| 2026-05-06 22:53 | -43.17242 | 172.71121 | 12433 ft | 354 kts | 12° |
| 2026-05-06 22:53 | -43.15148 | 172.72051 | 12962 ft | 358 kts | 12° |
| 2026-05-06 22:53 | -43.12996 | 172.73003 | 13531 ft | 361 kts | 13° |
| 2026-05-06 22:53 | -43.10838 | 172.73958 | 14069 ft | 365 kts | 13° |
| 2026-05-06 22:54 | -43.08640 | 172.74931 | 14613 ft | 368 kts | 13° |
| 2026-05-06 22:54 | -43.06416 | 172.75915 | 15201 ft | 369 kts | 13° |
| 2026-05-06 22:54 | -43.04122 | 172.76927 | 15771 ft | 371 kts | 13° |
| 2026-05-06 22:54 | -43.01867 | 172.77919 | 16343 ft | 373 kts | 13° |
| 2026-05-06 22:55 | -42.99596 | 172.78919 | 16821 ft | 377 kts | 13° |
| 2026-05-06 22:55 | -42.97270 | 172.79944 | 17365 ft | 379 kts | 13° |
| 2026-05-06 22:55 | -42.94968 | 172.80957 | 17873 ft | 382 kts | 14° |
| 2026-05-06 22:55 | -42.92639 | 172.81982 | 18373 ft | 384 kts | 14° |
| 2026-05-06 22:56 | -42.90290 | 172.83012 | 18806 ft | 388 kts | 14° |
| 2026-05-06 22:56 | -42.87945 | 172.84035 | 19312 ft | 389 kts | 12° |
| 2026-05-06 22:56 | -42.85603 | 172.84903 | 19773 ft | 392 kts | 15° |
| 2026-05-06 22:56 | -42.83311 | 172.86278 | 20203 ft | 397 kts | 20° |
| 2026-05-06 22:57 | -42.80994 | 172.87581 | 20605 ft | 399 kts | 17° |
| 2026-05-06 22:57 | -42.78613 | 172.88858 | 21022 ft | 402 kts | 17° |
| 2026-05-06 22:57 | -42.76268 | 172.90088 | 21388 ft | 405 kts | 17° |
| 2026-05-06 22:57 | -42.73860 | 172.91342 | 21811 ft | 408 kts | 16° |
| 2026-05-06 22:58 | -42.71475 | 172.92577 | 22228 ft | 410 kts | 16° |
| 2026-05-06 22:58 | -42.69064 | 172.93822 | 22653 ft | 411 kts | 16° |
| 2026-05-06 22:58 | -42.66631 | 172.95075 | 23000 ft | 414 kts | 16° |
| 2026-05-06 22:58 | -42.64227 | 172.96313 | 23337 ft | 417 kts | 16° |
| 2026-05-06 22:59 | -42.61758 | 172.97582 | 23719 ft | 419 kts | 16° |
| 2026-05-06 22:59 | -42.59316 | 172.98839 | 24099 ft | 421 kts | 16° |
| 2026-05-06 22:59 | -42.56854 | 173.00102 | 24480 ft | 423 kts | 16° |
| 2026-05-06 22:59 | -42.54357 | 173.01386 | 24885 ft | 425 kts | 16° |
| 2026-05-06 23:00 | -42.51834 | 173.02678 | 25214 ft | 428 kts | 16° |
| 2026-05-06 23:00 | -42.49313 | 173.03967 | 25519 ft | 432 kts | 16° |
| 2026-05-06 23:00 | -42.46754 | 173.05278 | 25870 ft | 434 kts | 16° |
| 2026-05-06 23:00 | -42.44199 | 173.06586 | 26235 ft | 436 kts | 16° |
| 2026-05-06 23:01 | -42.41621 | 173.07903 | 26591 ft | 438 kts | 16° |
| 2026-05-06 23:01 | -42.39053 | 173.09213 | 26923 ft | 441 kts | 16° |
| 2026-05-06 23:01 | -42.36435 | 173.10550 | 27238 ft | 443 kts | 16° |
| 2026-05-06 23:01 | -42.33834 | 173.11873 | 27573 ft | 446 kts | 15° |
| 2026-05-06 23:02 | -42.31192 | 173.13219 | 27914 ft | 448 kts | 15° |
| 2026-05-06 23:02 | -42.28595 | 173.14539 | 28273 ft | 449 kts | 16° |
| 2026-05-06 23:02 | -42.25937 | 173.15892 | 28632 ft | 451 kts | 15° |
| 2026-05-06 23:02 | -42.23274 | 173.17242 | 28977 ft | 452 kts | 15° |
| 2026-05-06 23:03 | -42.20580 | 173.18611 | 29418 ft | 452 kts | 15° |
| 2026-05-06 23:03 | -42.17956 | 173.19939 | 29893 ft | 450 kts | 15° |
| 2026-05-06 23:03 | -42.15328 | 173.21272 | 30388 ft | 449 kts | 15° |
| 2026-05-06 23:03 | -42.12712 | 173.22595 | 30776 ft | 450 kts | 15° |
| 2026-05-06 23:04 | -42.10120 | 173.23904 | 31247 ft | 449 kts | 15° |
| 2026-05-06 23:04 | -42.07534 | 173.25212 | 31753 ft | 447 kts | 15° |
| 2026-05-06 23:04 | -42.04922 | 173.26529 | 32195 ft | 446 kts | 15° |
| 2026-05-06 23:04 | -42.02329 | 173.27837 | 32679 ft | 444 kts | 15° |
| 2026-05-06 23:05 | -41.99749 | 173.29135 | 33142 ft | 443 kts | 15° |
| 2026-05-06 23:05 | -41.97148 | 173.30444 | 33566 ft | 442 kts | 15° |
| 2026-05-06 23:05 | -41.94534 | 173.31760 | 33981 ft | 441 kts | 14° |
| 2026-05-06 23:05 | -41.91943 | 173.33061 | 34345 ft | 441 kts | 14° |
| 2026-05-06 23:06 | -41.89334 | 173.34370 | 34739 ft | 439 kts | 14° |
| 2026-05-06 23:06 | -41.86763 | 173.35658 | 35020 ft | 440 kts | 14° |
| 2026-05-06 23:06 | -41.84209 | 173.36937 | 35169 ft | 442 kts | 14° |
| 2026-05-06 23:07 | -41.79035 | 173.39528 | 35120 ft | 439 kts | 14° |
| 2026-05-06 23:07 | -41.73909 | 173.42090 | 35119 ft | 436 kts | 14° |
| 2026-05-06 23:08 | -41.68802 | 173.44634 | 35125 ft | 437 kts | 14° |
| 2026-05-06 23:08 | -41.63674 | 173.47182 | 35134 ft | 439 kts | 14° |
| 2026-05-06 23:09 | -41.58482 | 173.49759 | 35127 ft | 440 kts | 14° |
| 2026-05-06 23:09 | -41.53245 | 173.52354 | 35127 ft | 440 kts | 14° |
| 2026-05-06 23:10 | -41.48077 | 173.54910 | 35120 ft | 441 kts | 14° |
| 2026-05-06 23:10 | -41.42860 | 173.57486 | 35137 ft | 439 kts | 14° |
| 2026-05-06 23:11 | -41.37653 | 173.60049 | 35147 ft | 440 kts | 14° |
| 2026-05-06 23:11 | -41.32425 | 173.62625 | 35155 ft | 440 kts | 14° |
| 2026-05-06 23:12 | -41.27255 | 173.65160 | 35150 ft | 441 kts | 14° |
| 2026-05-06 23:12 | -41.22116 | 173.67683 | 35140 ft | 440 kts | 14° |
| 2026-05-06 23:13 | -41.16912 | 173.70229 | 35154 ft | 439 kts | 14° |
| 2026-05-06 23:13 | -41.11607 | 173.72823 | 35157 ft | 440 kts | 14° |
| 2026-05-06 23:14 | -41.06096 | 173.75511 | 35138 ft | 442 kts | 14° |
| 2026-05-06 23:14 | -41.00564 | 173.78203 | 35164 ft | 441 kts | 14° |
| 2026-05-06 23:15 | -40.95166 | 173.80830 | 35160 ft | 441 kts | 14° |
| 2026-05-06 23:15 | -40.89880 | 173.83392 | 35166 ft | 443 kts | 14° |
| 2026-05-06 23:16 | -40.84542 | 173.85980 | 35167 ft | 443 kts | 14° |
| 2026-05-06 23:16 | -40.79249 | 173.88539 | 35169 ft | 444 kts | 14° |
| 2026-05-06 23:17 | -40.73882 | 173.91130 | 35175 ft | 445 kts | 14° |
| 2026-05-06 23:17 | -40.68343 | 173.93797 | 35177 ft | 446 kts | 14° |
| 2026-05-06 23:18 | -40.62918 | 173.96408 | 35180 ft | 446 kts | 14° |
| 2026-05-06 23:18 | -40.57481 | 173.99019 | 35180 ft | 449 kts | 14° |
| 2026-05-06 23:19 | -40.51948 | 174.01671 | 35184 ft | 451 kts | 15° |
| 2026-05-06 23:19 | -40.46275 | 174.04385 | 35181 ft | 451 kts | 15° |
| 2026-05-06 23:19 | -40.43479 | 174.05724 | 35306 ft | 451 kts | 15° |
| 2026-05-06 23:20 | -40.40693 | 174.07053 | 35146 ft | 451 kts | 15° |
| 2026-05-06 23:20 | -40.35162 | 174.09692 | 35152 ft | 449 kts | 15° |
| 2026-05-06 23:21 | -40.29654 | 174.12314 | 35167 ft | 452 kts | 15° |
| 2026-05-06 23:21 | -40.24209 | 174.14903 | 35187 ft | 450 kts | 15° |
| 2026-05-06 23:22 | -40.18803 | 174.17467 | 35196 ft | 452 kts | 15° |
| 2026-05-06 23:22 | -40.13253 | 174.20099 | 35193 ft | 453 kts | 15° |
| 2026-05-06 23:23 | -40.07765 | 174.22694 | 35192 ft | 453 kts | 15° |
| 2026-05-06 23:23 | -40.02265 | 174.25290 | 35198 ft | 454 kts | 15° |
| 2026-05-06 23:24 | -39.96794 | 174.27870 | 35201 ft | 454 kts | 15° |
| 2026-05-06 23:24 | -39.91327 | 174.30440 | 35189 ft | 453 kts | 15° |
| 2026-05-06 23:25 | -39.85802 | 174.33035 | 35193 ft | 454 kts | 15° |
| 2026-05-06 23:25 | -39.80367 | 174.35580 | 35193 ft | 454 kts | 15° |
| 2026-05-06 23:26 | -39.74823 | 174.38174 | 35203 ft | 454 kts | 15° |
| 2026-05-06 23:26 | -39.69240 | 174.40785 | 35197 ft | 455 kts | 15° |
| 2026-05-06 23:27 | -39.63542 | 174.43440 | 35199 ft | 456 kts | 15° |
| 2026-05-06 23:27 | -39.57722 | 174.46149 | 35215 ft | 457 kts | 16° |
| 2026-05-06 23:28 | -39.51808 | 174.48898 | 35214 ft | 456 kts | 16° |
| 2026-05-06 23:28 | -39.45960 | 174.50880 | 35246 ft | 448 kts | 3° |
| 2026-05-06 23:29 | -39.40119 | 174.51907 | 35240 ft | 449 kts | 4° |
| 2026-05-06 23:29 | -39.34362 | 174.53001 | 35233 ft | 449 kts | 5° |
| 2026-05-06 23:30 | -39.28633 | 174.54095 | 35238 ft | 449 kts | 5° |
| 2026-05-06 23:30 | -39.22950 | 174.55179 | 35244 ft | 450 kts | 5° |
| 2026-05-06 23:31 | -39.17257 | 174.56264 | 35250 ft | 452 kts | 5° |
| 2026-05-06 23:31 | -39.11419 | 174.57375 | 35146 ft | 455 kts | 5° |
| 2026-05-06 23:31 | -39.08566 | 174.57919 | 34895 ft | 454 kts | 5° |
| 2026-05-06 23:32 | -39.05680 | 174.58469 | 34663 ft | 452 kts | 5° |
| 2026-05-06 23:32 | -39.02867 | 174.59006 | 34440 ft | 451 kts | 5° |
| 2026-05-06 23:32 | -38.99923 | 174.59563 | 34081 ft | 455 kts | 5° |
| 2026-05-06 23:32 | -38.97048 | 174.60107 | 33428 ft | 459 kts | 5° |
| 2026-05-06 23:33 | -38.94144 | 174.60658 | 32807 ft | 460 kts | 5° |
| 2026-05-06 23:33 | -38.91270 | 174.61203 | 32080 ft | 462 kts | 5° |
| 2026-05-06 23:33 | -38.88380 | 174.61749 | 31426 ft | 462 kts | 6° |
| 2026-05-06 23:33 | -38.85422 | 174.62309 | 30826 ft | 460 kts | 6° |
| 2026-05-06 23:34 | -38.82429 | 174.62875 | 30290 ft | 456 kts | 6° |
| 2026-05-06 23:34 | -38.79353 | 174.63457 | 29796 ft | 452 kts | 6° |
| 2026-05-06 23:34 | -38.76394 | 174.64017 | 29292 ft | 448 kts | 6° |
| 2026-05-06 23:34 | -38.73539 | 174.64555 | 28803 ft | 444 kts | 6° |
| 2026-05-06 23:35 | -38.70683 | 174.65093 | 28280 ft | 441 kts | 5° |
| 2026-05-06 23:35 | -38.67796 | 174.65637 | 27756 ft | 437 kts | 5° |
| 2026-05-06 23:35 | -38.64964 | 174.66170 | 27259 ft | 433 kts | 5° |
| 2026-05-06 23:35 | -38.62143 | 174.66698 | 26756 ft | 429 kts | 5° |
| 2026-05-06 23:36 | -38.59398 | 174.67215 | 26291 ft | 424 kts | 5° |
| 2026-05-06 23:36 | -38.56728 | 174.67715 | 25851 ft | 419 kts | 5° |
| 2026-05-06 23:36 | -38.54071 | 174.68214 | 25429 ft | 414 kts | 5° |
| 2026-05-06 23:36 | -38.51488 | 174.68698 | 25013 ft | 409 kts | 5° |
| 2026-05-06 23:37 | -38.48875 | 174.69186 | 24552 ft | 405 kts | 5° |
| 2026-05-06 23:37 | -38.46341 | 174.69661 | 24102 ft | 400 kts | 5° |
| 2026-05-06 23:37 | -38.43711 | 174.70152 | 23646 ft | 396 kts | 5° |
| 2026-05-06 23:37 | -38.41142 | 174.70633 | 23155 ft | 392 kts | 5° |
| 2026-05-06 23:38 | -38.38575 | 174.71112 | 22666 ft | 389 kts | 5° |
| 2026-05-06 23:38 | -38.36031 | 174.71587 | 22188 ft | 385 kts | 5° |
| 2026-05-06 23:38 | -38.33526 | 174.72054 | 21723 ft | 381 kts | 5° |
| 2026-05-06 23:38 | -38.31020 | 174.72520 | 21262 ft | 377 kts | 5° |
| 2026-05-06 23:39 | -38.28541 | 174.72983 | 20812 ft | 372 kts | 5° |
| 2026-05-06 23:39 | -38.26088 | 174.73439 | 20370 ft | 368 kts | 5° |
| 2026-05-06 23:39 | -38.23707 | 174.73881 | 19942 ft | 363 kts | 5° |
| 2026-05-06 23:39 | -38.21258 | 174.74336 | 19497 ft | 359 kts | 5° |
| 2026-05-06 23:40 | -38.18912 | 174.74773 | 19106 ft | 353 kts | 5° |
| 2026-05-06 23:40 | -38.16551 | 174.75211 | 18646 ft | 349 kts | 5° |
| 2026-05-06 23:40 | -38.14215 | 174.75644 | 18210 ft | 345 kts | 5° |
| 2026-05-06 23:40 | -38.11898 | 174.76073 | 17783 ft | 341 kts | 5° |
| 2026-05-06 23:41 | -38.09611 | 174.76495 | 17361 ft | 338 kts | 5° |
| 2026-05-06 23:41 | -38.07367 | 174.76910 | 16931 ft | 335 kts | 5° |
| 2026-05-06 23:41 | -38.05183 | 174.77315 | 16510 ft | 334 kts | 5° |
| 2026-05-06 23:41 | -38.03007 | 174.77718 | 16084 ft | 331 kts | 5° |
| 2026-05-06 23:42 | -38.00821 | 174.78120 | 15657 ft | 328 kts | 5° |
| 2026-05-06 23:42 | -37.98620 | 174.78528 | 15226 ft | 325 kts | 5° |
| 2026-05-06 23:42 | -37.96415 | 174.78934 | 14789 ft | 323 kts | 5° |
| 2026-05-06 23:42 | -37.94207 | 174.79341 | 14337 ft | 321 kts | 5° |
| 2026-05-06 23:43 | -37.92022 | 174.79744 | 13888 ft | 318 kts | 5° |
| 2026-05-06 23:43 | -37.89844 | 174.80144 | 13421 ft | 317 kts | 5° |
| 2026-05-06 23:43 | -37.87696 | 174.80539 | 12976 ft | 315 kts | 5° |
| 2026-05-06 23:43 | -37.85634 | 174.80666 | 12630 ft | 308 kts | 357° |
| 2026-05-06 23:44 | -37.83511 | 174.80679 | 12134 ft | 310 kts | 358° |
| 2026-05-06 23:44 | -37.81423 | 174.80707 | 11694 ft | 308 kts | 358° |
| 2026-05-06 23:44 | -37.79301 | 174.80733 | 11277 ft | 305 kts | 358° |
| 2026-05-06 23:44 | -37.77237 | 174.80759 | 10891 ft | 302 kts | 358° |
| 2026-05-06 23:45 | -37.75134 | 174.80786 | 10514 ft | 298 kts | 358° |
| 2026-05-06 23:45 | -37.73110 | 174.80812 | 10243 ft | 293 kts | 359° |
| 2026-05-06 23:45 | -37.71108 | 174.80837 | 10158 ft | 288 kts | 359° |
| 2026-05-06 23:45 | -37.69175 | 174.80864 | 10065 ft | 277 kts | 359° |
| 2026-05-06 23:46 | -37.67321 | 174.80888 | 9975 ft | 266 kts | 358° |
| 2026-05-06 23:46 | -37.65526 | 174.80911 | 9865 ft | 256 kts | 358° |
| 2026-05-06 23:46 | -37.63773 | 174.80933 | 9606 ft | 253 kts | 359° |
| 2026-05-06 23:46 | -37.62029 | 174.80954 | 9358 ft | 250 kts | 358° |
| 2026-05-06 23:47 | -37.60290 | 174.80975 | 9100 ft | 248 kts | 358° |
| 2026-05-06 23:47 | -37.58595 | 174.80936 | 8850 ft | 244 kts | 351° |
| 2026-05-06 23:47 | -37.56958 | 174.80545 | 8622 ft | 240 kts | 348° |
| 2026-05-06 23:47 | -37.55330 | 174.80159 | 8391 ft | 238 kts | 348° |
| 2026-05-06 23:48 | -37.53714 | 174.79773 | 8167 ft | 235 kts | 348° |
| 2026-05-06 23:48 | -37.52101 | 174.79390 | 7946 ft | 233 kts | 348° |
| 2026-05-06 23:48 | -37.50523 | 174.79016 | 7729 ft | 231 kts | 348° |
| 2026-05-06 23:48 | -37.48965 | 174.78645 | 7514 ft | 229 kts | 348° |
| 2026-05-06 23:49 | -37.47400 | 174.78275 | 7299 ft | 228 kts | 348° |
| 2026-05-06 23:49 | -37.45846 | 174.77905 | 7088 ft | 226 kts | 349° |
| 2026-05-06 23:49 | -37.44292 | 174.77537 | 6877 ft | 225 kts | 349° |
| 2026-05-06 23:49 | -37.42774 | 174.77179 | 6671 ft | 225 kts | 349° |
| 2026-05-06 23:50 | -37.41247 | 174.76817 | 6461 ft | 225 kts | 349° |
| 2026-05-06 23:50 | -37.38189 | 174.76097 | 6027 ft | 224 kts | 349° |
| 2026-05-06 23:50 | -37.36655 | 174.75737 | 5803 ft | 224 kts | 349° |
| 2026-05-06 23:51 | -37.35139 | 174.75378 | 5575 ft | 223 kts | 349° |
| 2026-05-06 23:51 | -37.33595 | 174.75015 | 5340 ft | 223 kts | 349° |
| 2026-05-06 23:51 | -37.32071 | 174.74658 | 5096 ft | 222 kts | 349° |
| 2026-05-06 23:51 | -37.30551 | 174.74300 | 4847 ft | 222 kts | 350° |
| 2026-05-06 23:52 | -37.29046 | 174.73946 | 4590 ft | 222 kts | 350° |
| 2026-05-06 23:52 | -37.27531 | 174.73592 | 4326 ft | 223 kts | 350° |
| 2026-05-06 23:52 | -37.26003 | 174.73231 | 4023 ft | 222 kts | 351° |
| 2026-05-06 23:52 | -37.24494 | 174.72878 | 3775 ft | 215 kts | 351° |
| 2026-05-06 23:53 | -37.23041 | 174.72537 | 3750 ft | 212 kts | 351° |
| 2026-05-06 23:53 | -37.21596 | 174.72198 | 3679 ft | 206 kts | 351° |
| 2026-05-06 23:53 | -37.20223 | 174.71872 | 3578 ft | 200 kts | 350° |
| 2026-05-06 23:53 | -37.18844 | 174.71487 | 3317 ft | 203 kts | 350° |
| 2026-05-06 23:54 | -37.17484 | 174.71111 | 3192 ft | 198 kts | 350° |
| 2026-05-06 23:54 | -37.16133 | 174.70737 | 3135 ft | 198 kts | 350° |
| 2026-05-06 23:54 | -37.14801 | 174.70367 | 3075 ft | 194 kts | 350° |
| 2026-05-06 23:54 | -37.13525 | 174.70012 | 2992 ft | 181 kts | 350° |
| 2026-05-06 23:55 | -37.12336 | 174.69684 | 2905 ft | 169 kts | 351° |
| 2026-05-06 23:55 | -37.11187 | 174.69522 | 2695 ft | 167 kts | 349° |
| 2026-05-06 23:55 | -37.10077 | 174.69125 | 2471 ft | 164 kts | 349° |
| 2026-05-06 23:55 | -37.08979 | 174.68794 | 2241 ft | 162 kts | 349° |
| 2026-05-06 23:56 | -37.07878 | 174.68465 | 2018 ft | 161 kts | 350° |
| 2026-05-06 23:56 | -37.06802 | 174.68161 | 1812 ft | 159 kts | 353° |
| 2026-05-06 23:56 | -37.05734 | 174.68277 | 1685 ft | 153 kts | 17° |
| 2026-05-06 23:56 | -37.04813 | 174.68770 | 1513 ft | 146 kts | 28° |
| 2026-05-06 23:57 | -37.04054 | 174.69521 | 1303 ft | 143 kts | 43° |
| 2026-05-06 23:57 | -37.03472 | 174.70532 | 1127 ft | 141 kts | 57° |
| 2026-05-06 23:57 | -37.03136 | 174.71626 | 933 ft | 133 kts | 66° |
| 2026-05-06 23:57 | -37.02856 | 174.72684 | 725 ft | 133 kts | 66° |
| 2026-05-06 23:58 | -37.02589 | 174.73755 | 523 ft | 132 kts | 65° |
| 2026-05-06 23:58 | -37.02293 | 174.74815 | 392 ft | 130 kts | 64° |
| 2026-05-06 23:58 | -37.01999 | 174.75859 | 233 ft | 133 kts | 61° |
| 2026-05-06 23:58 | -37.01676 | 174.76910 | 94 ft | 132 kts | 65° |
| 2026-05-06 23:59 | -37.01390 | 174.77936 | 30 ft | 104 kts | 71° |
| 2026-05-06 23:59 | -37.01216 | 174.78572 | 31 ft | 69 kts | 70° |
| 2026-05-06 23:59 | -37.01061 | 174.78960 | 32 ft | 26 kts | 46° |
| 2026-05-06 23:59 | -37.00936 | 174.79108 | 35 ft | 21 kts | 41° |
| 2026-05-07 00:00 | -37.00812 | 174.79083 | 37 ft | 19 kts | 301° |
| 2026-05-07 00:00 | -37.00816 | 174.78919 | 35 ft | 18 kts | 258° |
| 2026-05-07 00:00 | -37.00769 | 174.78784 | 35 ft | 15 kts | 328° |
| 2026-05-07 00:00 | -37.00708 | 174.78813 | 36 ft | 12 kts | 65° |
| 2026-05-07 00:01 | -37.00702 | 174.78836 | 36 ft | 2 kts | 70° |
| 2026-05-07 00:01 | -37.00698 | 174.78847 | 36 ft | 0 kts | 70° |
| 2026-05-07 00:03 | -37.00699 | 174.78847 | 36 ft | 0 kts | 70° |